createdAt,value
2022-11-05T00:00:31.987Z,99.99
2022-11-05T00:01:32.234Z,99.99
2022-11-05T00:02:31.698Z,99.99
2022-11-05T00:03:31.848Z,99.99
2022-11-05T00:04:33.575Z,99.99
2022-11-05T00:05:31.661Z,99.99
2022-11-05T00:06:31.760Z,99.99
2022-11-05T00:07:31.888Z,99.99
2022-11-05T00:08:31.896Z,99.99
2022-11-05T00:09:31.863Z,99.99
2022-11-05T00:10:31.840Z,99.99
2022-11-05T00:11:31.572Z,99.63
2022-11-05T00:12:31.557Z,99.99
2022-11-05T00:13:31.799Z,98.68
2022-11-05T00:14:31.783Z,99.16
2022-11-05T00:15:31.516Z,98.11
2022-11-05T00:16:31.495Z,98.49
2022-11-05T00:17:31.484Z,98.21
2022-11-05T00:18:31.722Z,98.11
2022-11-05T00:19:31.448Z,98.73
2022-11-05T00:20:31.433Z,98.49
2022-11-05T00:21:31.421Z,99.21
2022-11-05T00:22:31.575Z,99.44
2022-11-05T00:23:31.654Z,99.91
2022-11-05T00:24:31.661Z,99.99
2022-11-05T00:25:32.193Z,99.99
2022-11-05T00:26:31.925Z,99.99
2022-11-05T00:27:31.906Z,99.99
2022-11-05T00:28:32.155Z,99.63
2022-11-05T00:29:32.136Z,99.82
2022-11-05T00:30:32.121Z,99.99
2022-11-05T00:31:32.111Z,99.26
2022-11-05T00:32:31.840Z,99.06
2022-11-05T00:33:31.823Z,98.4
2022-11-05T00:34:32.064Z,98.21
2022-11-05T00:35:32.044Z,97.36
2022-11-05T00:36:32.034Z,96.88
2022-11-05T00:37:32.014Z,97.02
2022-11-05T00:38:32.034Z,96.93
2022-11-05T00:39:31.984Z,96.74
2022-11-05T00:40:32.101Z,96.22
2022-11-05T00:41:31.955Z,96.83
2022-11-05T00:42:31.941Z,96.83
2022-11-05T00:43:31.929Z,96.45
2022-11-05T00:44:31.659Z,96.83
2022-11-05T00:45:31.657Z,96.93
2022-11-05T00:46:31.890Z,97.31
2022-11-05T00:47:31.868Z,97.5
2022-11-05T00:48:31.594Z,98.26
2022-11-05T00:49:31.834Z,98.64
2022-11-05T00:50:31.824Z,99.4
2022-11-05T00:51:31.899Z,99.99
2022-11-05T00:52:31.893Z,99.99
2022-11-05T00:53:31.866Z,99.87
2022-11-05T00:54:31.721Z,99.73
2022-11-05T00:55:31.848Z,99.06
2022-11-05T00:56:31.847Z,99.06
2022-11-05T00:57:31.559Z,98.4
2022-11-05T00:58:31.546Z,98.16
2022-11-05T00:59:31.788Z,97.78
2022-11-05T01:00:31.520Z,97.55
2022-11-05T01:01:31.795Z,97.83
2022-11-05T01:02:32.149Z,97.17
2022-11-05T01:03:31.727Z,97.12
2022-11-05T01:04:31.450Z,96.83
2022-11-05T01:05:31.691Z,97.12
2022-11-05T01:06:31.420Z,97.02
2022-11-05T01:07:31.406Z,96.83
2022-11-05T01:08:31.643Z,97.02
2022-11-05T01:09:31.627Z,96.83
2022-11-05T01:10:31.383Z,96.83
2022-11-05T01:11:31.599Z,97.02
2022-11-05T01:12:31.613Z,96.74
2022-11-05T01:13:31.311Z,96.93
2022-11-05T01:14:31.569Z,97.12
2022-11-05T01:15:31.541Z,97.31
2022-11-05T01:16:31.269Z,97.12
2022-11-05T01:17:31.513Z,97.88
2022-11-05T01:18:31.246Z,97.88
2022-11-05T01:19:31.480Z,97.41
2022-11-05T01:20:31.463Z,97.12
2022-11-05T01:21:31.454Z,97.41
2022-11-05T01:22:31.184Z,97.22
2022-11-05T01:23:31.432Z,97.12
2022-11-05T01:24:31.146Z,97.02
2022-11-05T01:25:31.393Z,97.02
2022-11-05T01:26:31.225Z,97.12
2022-11-05T01:27:31.104Z,97.22
2022-11-05T01:28:31.464Z,97.88
2022-11-05T01:29:31.330Z,97.69
2022-11-05T01:30:31.313Z,98.35
2022-11-05T01:31:31.315Z,98.45
2022-11-05T01:32:31.028Z,98.07
2022-11-05T01:33:31.273Z,98.16
2022-11-05T01:34:30.999Z,98.45
2022-11-05T01:35:31.246Z,98.16
2022-11-05T01:36:30.965Z,98.45
2022-11-05T01:37:30.953Z,98.35
2022-11-05T01:38:31.195Z,97.6
2022-11-05T01:39:31.180Z,97.97
2022-11-05T01:40:31.163Z,97.12
2022-11-05T01:41:30.894Z,97.41
2022-11-05T01:42:30.898Z,97.12
2022-11-05T01:43:30.866Z,97.12
2022-11-05T01:44:31.128Z,96.93
2022-11-05T01:45:31.091Z,97.22
2022-11-05T01:46:30.877Z,97.31
2022-11-05T01:47:31.117Z,97.97
2022-11-05T01:48:31.095Z,98.07
2022-11-05T01:49:31.083Z,97.69
2022-11-05T01:50:31.074Z,97.97
2022-11-05T01:51:30.797Z,97.69
2022-11-05T01:52:31.037Z,97.78
2022-11-05T01:53:31.023Z,98.35
2022-11-05T01:54:31.002Z,98.73
2022-11-05T01:55:30.999Z,98.35
2022-11-05T01:56:30.724Z,99.49
2022-11-05T01:57:30.962Z,99.21
2022-11-05T01:58:30.717Z,99.3
2022-11-05T01:59:30.675Z,99.21
2022-11-05T02:00:30.949Z,98.83
2022-11-05T02:01:31.186Z,98.07
2022-11-05T02:02:30.958Z,98.54
2022-11-05T02:03:30.634Z,98.16
2022-11-05T02:04:30.857Z,98.83
2022-11-05T02:05:30.842Z,98.92
2022-11-05T02:06:30.829Z,99.4
2022-11-05T02:07:30.551Z,99.97
2022-11-05T02:08:30.800Z,99.68
2022-11-05T02:09:30.776Z,99.97
2022-11-05T02:10:30.767Z,99.97
2022-11-05T02:11:30.495Z,99.97
2022-11-05T02:12:30.741Z,99.87
2022-11-05T02:13:30.723Z,99.99
2022-11-05T02:14:30.475Z,99.99
2022-11-05T02:15:30.699Z,99.99
2022-11-05T02:16:30.785Z,99.99
2022-11-05T02:17:30.681Z,99.99
2022-11-05T02:18:30.714Z,99.99
2022-11-05T02:19:30.632Z,99.99
2022-11-05T02:20:30.616Z,99.99
2022-11-05T02:21:30.601Z,99.99
2022-11-05T02:22:30.590Z,99.99
2022-11-05T02:23:30.572Z,99.99
2022-11-05T02:24:30.560Z,99.99
2022-11-05T02:25:30.283Z,99.99
2022-11-05T02:26:30.281Z,99.99
2022-11-05T02:27:30.254Z,99.99
2022-11-05T02:28:30.499Z,99.99
2022-11-05T02:29:30.227Z,99.99
2022-11-05T02:30:30.491Z,99.99
2022-11-05T02:31:30.452Z,99.63
2022-11-05T02:32:30.458Z,99.99
2022-11-05T02:33:30.165Z,98.87
2022-11-05T02:34:30.151Z,98.68
2022-11-05T02:35:30.389Z,98.68
2022-11-05T02:36:30.119Z,98.49
2022-11-05T02:37:30.364Z,98.59
2022-11-05T02:38:30.094Z,99.06
2022-11-05T02:39:30.329Z,98.83
2022-11-05T02:40:30.317Z,98.21
2022-11-05T02:41:30.303Z,98.59
2022-11-05T02:42:30.285Z,98.54
2022-11-05T02:43:30.011Z,98.68
2022-11-05T02:44:30.003Z,98.45
2022-11-05T02:45:29.980Z,98.73
2022-11-05T02:46:29.996Z,98.54
2022-11-05T02:47:29.952Z,99.11
2022-11-05T02:48:30.227Z,98.16
2022-11-05T02:49:30.177Z,98.16
2022-11-05T02:50:30.903Z,98.45
2022-11-05T02:51:30.888Z,98.16
2022-11-05T02:52:30.875Z,98.54
2022-11-05T02:53:30.861Z,98.64
2022-11-05T02:54:31.183Z,98.26
2022-11-05T02:55:30.825Z,98.54
2022-11-05T02:56:30.816Z,98.64
2022-11-05T02:57:31.070Z,98.83
2022-11-05T02:58:31.043Z,98.73
2022-11-05T02:59:30.789Z,98.54
2022-11-05T03:00:30.751Z,98.35
2022-11-05T03:01:31.304Z,98.35
2022-11-05T03:02:31.379Z,98.35
2022-11-05T03:03:30.965Z,98.16
2022-11-05T03:04:30.974Z,98.26
2022-11-05T03:05:30.681Z,98.35
2022-11-05T03:06:30.914Z,98.54
2022-11-05T03:07:30.915Z,99.4
2022-11-05T03:08:30.890Z,99.11
2022-11-05T03:09:30.877Z,99.02
2022-11-05T03:10:30.601Z,99.11
2022-11-05T03:11:30.848Z,99.21
2022-11-05T03:12:30.828Z,98.16
2022-11-05T03:13:30.834Z,98.54
2022-11-05T03:14:30.800Z,98.83
2022-11-05T03:15:30.793Z,98.26
2022-11-05T03:16:30.767Z,98.26
2022-11-05T03:17:30.497Z,98.35
2022-11-05T03:18:30.769Z,98.35
2022-11-05T03:19:30.723Z,98.16
2022-11-05T03:20:30.762Z,98.64
2022-11-05T03:21:30.694Z,97.78
2022-11-05T03:22:30.418Z,97.97
2022-11-05T03:23:30.666Z,97.31
2022-11-05T03:24:30.649Z,97.69
2022-11-05T03:25:30.381Z,97.97
2022-11-05T03:26:30.621Z,97.97
2022-11-05T03:27:30.604Z,97.78
2022-11-05T03:28:30.587Z,97.5
2022-11-05T03:29:30.319Z,98.35
2022-11-05T03:30:30.308Z,98.64
2022-11-05T03:31:30.548Z,98.73
2022-11-05T03:32:30.275Z,98.83
2022-11-05T03:49:48.864Z,99.99
2022-11-05T03:50:48.515Z,99.99
2022-11-05T03:51:48.502Z,99.97
2022-11-05T03:52:48.734Z,99.49
2022-11-05T03:53:48.723Z,99.49
2022-11-05T03:54:48.702Z,99.11
2022-11-05T03:55:48.690Z,99.99
2022-11-05T03:56:48.409Z,99.87
2022-11-05T03:57:48.663Z,99.68
2022-11-05T03:58:48.379Z,99.49
2022-11-05T03:59:48.623Z,99.44
2022-11-05T04:00:48.348Z,99.63
2022-11-05T04:01:48.914Z,99.82
2022-11-05T04:02:49.005Z,99.91
2022-11-05T04:03:48.558Z,99.99
2022-11-05T04:04:48.290Z,99.49
2022-11-05T04:05:48.578Z,99.26
2022-11-05T04:06:48.510Z,99.44
2022-11-05T04:07:48.492Z,99.99
2022-11-05T04:08:48.219Z,99.82
2022-11-05T04:09:48.464Z,99.99
2022-11-05T04:10:48.444Z,99.99
2022-11-05T04:11:48.430Z,99.99
2022-11-05T04:12:48.152Z,99.99
2022-11-05T04:13:48.399Z,99.99
2022-11-05T04:14:48.383Z,99.99
2022-11-05T04:15:48.369Z,99.99
2022-11-05T04:16:48.349Z,99.99
2022-11-05T04:17:48.343Z,99.99
2022-11-05T04:18:48.061Z,99.99
2022-11-05T04:19:48.047Z,99.82
2022-11-05T04:20:48.031Z,99.82
2022-11-05T04:21:48.411Z,99.06
2022-11-05T04:22:48.262Z,99.16
2022-11-05T04:23:48.250Z,99.16
2022-11-05T04:24:48.228Z,99.35
2022-11-05T04:25:48.215Z,98.87
2022-11-05T04:26:48.192Z,99.16
2022-11-05T04:27:48.182Z,98.49
2022-11-05T04:28:48.169Z,98.59
2022-11-05T04:29:48.151Z,98.4
2022-11-05T04:30:47.887Z,97.83
2022-11-05T04:31:47.878Z,97.92
2022-11-05T04:32:47.845Z,97.26
2022-11-05T04:33:48.091Z,96.78
2022-11-05T04:34:47.815Z,96.5
2022-11-05T04:35:48.063Z,96.41
2022-11-05T04:36:48.041Z,96.31
2022-11-05T04:37:48.078Z,96.22
2022-11-05T04:38:47.756Z,96.12
2022-11-05T04:39:48.002Z,96.22
2022-11-05T04:40:48.003Z,96.22
2022-11-05T04:41:47.966Z,96.41
2022-11-05T04:42:47.702Z,96.41
2022-11-05T04:43:48.270Z,96.41
2022-11-05T04:44:48.250Z,96.03
2022-11-05T04:45:48.235Z,96.5
2022-11-05T04:46:47.989Z,96.59
2022-11-05T04:47:47.945Z,96.03
2022-11-05T04:48:48.197Z,96.12
2022-11-05T04:49:47.914Z,95.84
2022-11-05T04:50:47.908Z,95.93
2022-11-05T04:51:48.274Z,95.74
2022-11-05T04:52:47.871Z,95.55
2022-11-05T04:53:48.162Z,95.31
2022-11-05T04:54:48.095Z,95.46
2022-11-05T04:55:48.082Z,95.55
2022-11-05T04:56:48.070Z,94.84
2022-11-05T04:57:47.791Z,95.27
2022-11-05T04:58:47.782Z,94.93
2022-11-05T04:59:48.021Z,95.12
2022-11-05T05:00:48.094Z,95.22
2022-11-05T05:01:48.126Z,94.84
2022-11-05T05:02:47.976Z,95.22
2022-11-05T05:03:47.700Z,94.74
2022-11-05T05:04:48.132Z,94.84
2022-11-05T05:05:48.369Z,94.46
2022-11-05T05:06:48.132Z,94.56
2022-11-05T05:07:48.086Z,95.22
2022-11-05T05:08:48.329Z,95.12
2022-11-05T05:09:48.356Z,95.31
2022-11-05T05:10:48.043Z,95.12
2022-11-05T05:11:48.026Z,95.31
2022-11-05T05:12:48.272Z,94.93
2022-11-05T05:13:48.248Z,95.12
2022-11-05T05:14:48.240Z,95.22
2022-11-05T05:15:48.218Z,95.22
2022-11-05T05:16:48.206Z,95.7
2022-11-05T05:17:48.188Z,95.51
2022-11-05T05:18:49.034Z,95.98
2022-11-05T05:19:47.900Z,96.17
2022-11-05T05:20:48.146Z,95.7
2022-11-05T05:21:47.870Z,95.6
2022-11-05T05:22:47.859Z,95.89
2022-11-05T05:23:48.101Z,95.98
2022-11-05T05:24:54.592Z,96.08
2022-11-05T05:25:48.092Z,96.17
2022-11-05T05:26:48.057Z,96.36
2022-11-05T05:27:48.039Z,96.55
2022-11-05T05:28:48.026Z,97.02
2022-11-05T05:29:48.008Z,96.83
2022-11-05T05:30:47.738Z,96.55
2022-11-05T05:31:47.731Z,96.45
2022-11-05T05:32:47.709Z,96.08
2022-11-05T05:33:47.693Z,95.98
2022-11-05T05:34:47.673Z,96.26
2022-11-05T05:35:47.920Z,96.26
2022-11-05T05:36:47.902Z,96.36
2022-11-05T05:37:47.898Z,96.26
2022-11-05T05:38:47.869Z,96.45
2022-11-05T05:39:47.602Z,96.83
2022-11-05T05:40:47.865Z,97.02
2022-11-05T05:41:47.855Z,96.64
2022-11-05T05:42:47.812Z,96.74
2022-11-05T05:43:47.805Z,96.83
2022-11-05T05:44:47.796Z,96.93
2022-11-05T05:45:47.510Z,96.74
2022-11-05T05:46:47.756Z,96.17
2022-11-05T05:47:47.488Z,96.26
2022-11-05T05:48:47.727Z,96.74
2022-11-05T05:49:47.712Z,97.12
2022-11-05T05:50:47.435Z,96.83
2022-11-05T05:51:47.681Z,96.83
2022-11-05T05:52:47.405Z,97.12
2022-11-05T05:53:47.389Z,97.5
2022-11-05T05:54:47.637Z,97.69
2022-11-05T05:55:47.622Z,97.6
2022-11-05T05:56:47.635Z,98.26
2022-11-05T05:57:47.615Z,98.35
2022-11-05T05:58:47.573Z,98.26
2022-11-05T05:59:47.308Z,98.16
2022-11-05T06:00:47.541Z,98.26
2022-11-05T06:01:47.808Z,97.69
2022-11-05T06:02:47.701Z,97.6
2022-11-05T06:03:47.504Z,97.78
2022-11-05T06:04:47.230Z,97.97
2022-11-05T06:05:47.468Z,97.31
2022-11-05T06:06:47.453Z,97.31
2022-11-05T06:07:47.442Z,97.12
2022-11-05T06:08:47.437Z,96.26
2022-11-05T06:09:47.151Z,96.45
2022-11-05T06:10:47.586Z,96.26
2022-11-05T06:11:47.123Z,96.26
2022-11-05T06:12:47.555Z,96.26
2022-11-05T06:13:47.377Z,96.36
2022-11-05T06:14:47.332Z,96.17
2022-11-05T06:15:47.321Z,97.02
2022-11-05T06:16:47.050Z,97.22
2022-11-05T06:17:47.032Z,96.74
2022-11-05T06:18:47.026Z,96.64
2022-11-05T06:19:47.266Z,96.74
2022-11-05T06:20:47.266Z,96.93
2022-11-05T06:21:47.233Z,97.22
2022-11-05T06:22:46.959Z,96.64
2022-11-05T06:23:47.205Z,97.02
2022-11-05T06:24:46.933Z,96.83
2022-11-05T06:25:47.174Z,96.83
2022-11-05T06:26:46.900Z,97.31
2022-11-05T06:27:47.145Z,97.41
2022-11-05T06:28:47.365Z,96.83
2022-11-05T06:29:47.178Z,97.02
2022-11-05T06:30:47.099Z,97.31
2022-11-05T06:31:47.082Z,97.31
2022-11-05T06:32:47.071Z,97.5
2022-11-05T06:33:46.792Z,97.12
2022-11-05T06:34:46.780Z,97.69
2022-11-05T06:35:47.023Z,97.69
2022-11-05T06:36:47.006Z,97.88
2022-11-05T06:37:46.734Z,97.88
2022-11-05T06:38:46.989Z,97.12
2022-11-05T06:39:46.962Z,97.22
2022-11-05T06:40:46.688Z,97.22
2022-11-05T06:42:19.563Z,97.31
2022-11-05T06:42:46.918Z,97.41
2022-11-05T06:43:46.898Z,97.12
2022-11-05T06:44:46.909Z,97.02
2022-11-05T06:45:46.905Z,97.12
2022-11-05T06:46:51.040Z,97.31
2022-11-05T06:47:46.584Z,96.83
2022-11-05T06:48:46.587Z,96.83
2022-11-05T06:49:46.817Z,97.02
2022-11-05T06:50:46.541Z,96.74
2022-11-05T06:51:46.528Z,96.74
2022-11-05T06:52:46.512Z,96.74
2022-11-05T06:53:46.754Z,95.89
2022-11-05T06:54:46.481Z,96.36
2022-11-05T06:55:46.518Z,96.26
2022-11-05T06:56:46.507Z,96.22
2022-11-05T06:57:46.746Z,96.22
2022-11-05T06:58:46.732Z,96.17
2022-11-05T06:59:46.717Z,95.94
2022-11-05T07:00:46.794Z,96.12
2022-11-05T07:01:47.222Z,96.08
2022-11-05T07:02:46.673Z,96.31
2022-11-05T07:03:46.659Z,96.31
2022-11-05T07:04:46.648Z,96.41
2022-11-05T07:05:46.374Z,96.12
2022-11-05T07:06:46.616Z,95.84
2022-11-05T07:07:46.602Z,96.12
2022-11-05T07:08:46.327Z,96.5
2022-11-05T07:09:46.570Z,96.88
2022-11-05T07:10:46.557Z,96.88
2022-11-05T07:11:46.544Z,96.6
2022-11-05T07:12:46.543Z,96.69
2022-11-05T07:13:46.253Z,97.27
2022-11-05T07:14:46.237Z,97.55
2022-11-05T07:15:46.490Z,98.31
2022-11-05T07:16:46.492Z,98.59
2022-11-05T07:17:46.478Z,98.69
2022-11-05T07:18:46.438Z,98.5
2022-11-05T07:19:46.426Z,98.97
2022-11-05T07:20:46.413Z,98.59
2022-11-05T07:21:46.140Z,99.26
2022-11-05T07:22:46.380Z,98.79
2022-11-05T07:23:46.367Z,98.69
2022-11-05T07:24:46.348Z,98.59
2022-11-05T07:25:46.335Z,98.88
2022-11-05T07:26:46.414Z,98.79
2022-11-05T07:27:46.322Z,98.79
2022-11-05T07:28:46.035Z,99.16
2022-11-05T07:29:46.292Z,99.44
2022-11-05T07:30:46.016Z,99.26
2022-11-05T07:31:46.332Z,99.44
2022-11-05T07:32:46.419Z,99.16
2022-11-05T07:33:46.249Z,98.97
2022-11-05T07:34:46.207Z,99.44
2022-11-05T07:35:46.191Z,99.73
2022-11-05T07:36:46.172Z,99.99
2022-11-05T07:37:46.168Z,99.99
2022-11-05T07:38:46.162Z,99.99
2022-11-05T07:39:45.878Z,99.99
2022-11-05T07:40:46.394Z,99.99
2022-11-05T07:41:46.379Z,99.99
2022-11-05T07:42:46.358Z,99.99
2022-11-05T07:43:46.348Z,99.99
2022-11-05T07:44:46.071Z,99.99
2022-11-05T07:45:46.317Z,99.99
2022-11-05T07:46:46.040Z,99.99
2022-11-05T07:47:46.288Z,99.99
2022-11-05T07:48:46.327Z,99.99
2022-11-05T07:49:46.286Z,99.99
2022-11-05T07:50:46.245Z,99.99
2022-11-05T07:51:45.969Z,99.99
2022-11-05T07:52:45.957Z,99.99
2022-11-05T07:53:48.094Z,99.99
2022-11-05T07:54:46.182Z,99.99
2022-11-05T07:55:46.181Z,99.99
2022-11-05T07:56:45.898Z,99.99
2022-11-05T07:57:46.152Z,99.99
2022-11-05T07:58:46.127Z,99.99
2022-11-05T07:59:46.115Z,99.99
2022-11-05T08:00:46.217Z,99.99
2022-11-05T08:01:46.680Z,99.99
2022-11-05T08:02:47.325Z,99.99
2022-11-05T08:03:46.953Z,99.99
2022-11-05T08:04:46.775Z,99.99
2022-11-05T08:05:46.781Z,99.99
2022-11-05T08:06:46.724Z,99.99
2022-11-05T08:07:46.710Z,99.99
2022-11-05T08:08:46.697Z,99.99
2022-11-05T08:09:46.425Z,99.99
2022-11-05T08:10:46.670Z,99.99
2022-11-05T08:11:46.649Z,99.99
2022-11-05T08:12:46.639Z,99.99
2022-11-05T08:13:46.638Z,99.99
2022-11-05T08:14:46.621Z,99.99
2022-11-05T08:15:46.604Z,99.99
2022-11-05T08:16:46.583Z,99.99
2022-11-05T08:17:46.310Z,99.99
2022-11-05T08:18:46.554Z,99.99
2022-11-05T08:19:46.286Z,99.99
2022-11-05T08:20:46.290Z,99.99
2022-11-05T08:21:46.536Z,99.99
2022-11-05T08:22:46.500Z,99.99
2022-11-05T08:23:46.232Z,99.99
2022-11-05T08:24:46.472Z,99.99
2022-11-05T08:25:46.472Z,99.99
2022-11-05T08:26:46.276Z,99.99
2022-11-05T08:27:46.424Z,99.99
2022-11-05T08:28:46.427Z,99.99
2022-11-05T08:29:46.392Z,99.99
2022-11-05T08:30:46.384Z,99.99
2022-11-05T08:31:46.110Z,99.99
2022-11-05T08:32:46.366Z,99.99
2022-11-05T08:33:46.337Z,99.99
2022-11-05T08:34:46.065Z,99.99
2022-11-05T08:35:46.049Z,99.99
2022-11-05T08:36:46.322Z,99.99
2022-11-05T08:37:46.311Z,99.99
2022-11-05T08:38:46.277Z,99.99
2022-11-05T08:39:46.252Z,99.99
2022-11-05T08:40:46.239Z,99.99
2022-11-05T08:41:46.233Z,99.99
2022-11-05T08:42:46.215Z,99.99
2022-11-05T08:43:45.935Z,99.99
2022-11-05T08:44:46.182Z,99.99
2022-11-05T08:45:46.493Z,99.99
2022-11-05T08:46:46.745Z,99.99
2022-11-05T08:47:46.724Z,99.99
2022-11-05T08:48:46.712Z,99.99
2022-11-05T08:49:46.692Z,99.99
2022-11-05T08:50:46.688Z,99.99
2022-11-05T08:51:46.686Z,99.99
2022-11-05T08:52:46.422Z,99.99
2022-11-05T08:53:46.661Z,99.99
2022-11-05T08:54:46.634Z,99.99
2022-11-05T08:55:46.654Z,99.99
2022-11-05T08:56:46.595Z,99.99
2022-11-05T08:57:46.328Z,99.99
2022-11-05T08:58:46.571Z,99.99
2022-11-05T08:59:46.299Z,99.99
2022-11-05T09:00:46.424Z,99.99
2022-11-05T09:01:46.787Z,99.99
2022-11-05T09:02:46.742Z,99.99
2022-11-05T09:03:46.250Z,99.99
2022-11-05T09:04:46.234Z,99.99
2022-11-05T09:05:46.479Z,99.99
2022-11-05T09:06:46.462Z,99.99
2022-11-05T09:07:46.194Z,99.99
2022-11-05T09:08:46.458Z,99.99
2022-11-05T09:09:46.543Z,99.99
2022-11-05T09:10:46.419Z,99.99
2022-11-05T09:12:13.623Z,99.99
2022-11-05T09:12:46.389Z,99.99
2022-11-05T09:13:46.116Z,99.99
2022-11-05T09:14:46.356Z,99.99
2022-11-05T09:15:46.357Z,99.99
2022-11-05T09:16:46.332Z,99.99
2022-11-05T09:17:46.063Z,99.99
2022-11-05T09:18:46.050Z,99.99
2022-11-05T09:19:46.040Z,99.99
2022-11-05T09:20:46.033Z,99.99
2022-11-05T09:21:46.273Z,99.99
2022-11-05T09:22:45.999Z,99.99
2022-11-05T09:23:46.243Z,99.99
2022-11-05T09:24:46.253Z,99.99
2022-11-05T09:25:46.274Z,99.99
2022-11-05T09:26:46.218Z,99.99
2022-11-05T09:27:45.940Z,99.99
2022-11-05T09:28:45.928Z,99.99
2022-11-05T09:29:46.169Z,99.99
2022-11-05T09:30:46.169Z,99.99
2022-11-05T09:31:46.168Z,99.99
2022-11-05T09:32:46.127Z,99.99
2022-11-05T09:33:46.118Z,99.99
2022-11-05T09:34:46.104Z,99.99
2022-11-05T09:35:46.095Z,99.99
2022-11-05T09:36:46.993Z,99.99
2022-11-05T09:37:46.083Z,99.99
2022-11-05T09:38:45.793Z,99.99
2022-11-05T09:39:46.036Z,99.99
2022-11-05T09:40:46.076Z,99.99
2022-11-05T09:41:46.035Z,99.99
2022-11-05T09:42:45.996Z,99.99
2022-11-05T09:43:45.993Z,99.99
2022-11-05T09:44:45.715Z,99.99
2022-11-05T09:45:45.961Z,99.99
2022-11-05T09:46:45.944Z,99.99
2022-11-05T09:47:45.683Z,99.99
2022-11-05T09:48:45.691Z,99.99
2022-11-05T09:49:45.652Z,99.99
2022-11-05T09:50:45.899Z,99.99
2022-11-05T09:51:45.884Z,99.99
2022-11-05T09:52:45.868Z,99.99
2022-11-05T09:53:45.856Z,99.99
2022-11-05T09:54:45.847Z,99.99
2022-11-05T09:55:45.840Z,99.99
2022-11-05T09:56:45.847Z,99.99
2022-11-05T09:57:45.840Z,99.99
2022-11-05T09:58:45.802Z,99.99
2022-11-05T09:59:45.785Z,99.99
2022-11-05T10:00:45.890Z,99.99
2022-11-05T10:01:46.084Z,99.99
2022-11-05T10:02:45.919Z,99.99
2022-11-05T10:03:45.475Z,99.99
2022-11-05T10:04:45.718Z,99.99
2022-11-05T10:05:45.950Z,99.99
2022-11-05T10:06:45.696Z,99.99
2022-11-05T10:07:45.677Z,99.99
2022-11-05T10:08:45.672Z,99.99
2022-11-05T10:09:45.397Z,99.99
2022-11-05T10:10:45.645Z,99.99
2022-11-05T10:11:45.628Z,99.99
2022-11-05T10:12:45.645Z,99.99
2022-11-05T10:13:45.626Z,99.99
2022-11-05T10:14:45.333Z,99.99
2022-11-05T10:15:45.325Z,99.99
2022-11-05T10:16:45.565Z,99.99
2022-11-05T10:17:45.551Z,99.99
2022-11-05T10:18:45.540Z,99.99
2022-11-05T10:19:45.529Z,99.99
2022-11-05T10:20:45.518Z,99.99
2022-11-05T10:22:15.234Z,99.99
2022-11-05T10:22:51.428Z,99.99
2022-11-05T10:23:45.217Z,99.99
2022-11-05T10:24:45.465Z,99.99
2022-11-05T10:25:45.193Z,99.99
2022-11-05T10:26:45.441Z,99.99
2022-11-05T10:27:45.425Z,99.99
2022-11-05T10:28:45.178Z,99.99
2022-11-05T10:29:45.424Z,99.99
2022-11-05T10:30:45.130Z,99.99
2022-11-05T10:31:45.159Z,99.99
2022-11-05T10:32:45.366Z,99.99
2022-11-05T10:33:45.350Z,99.99
2022-11-05T10:34:45.347Z,99.99
2022-11-05T10:35:45.071Z,99.99
2022-11-05T10:36:45.313Z,99.99
2022-11-05T10:37:45.298Z,99.99
2022-11-05T10:38:45.287Z,99.99
2022-11-05T10:39:45.278Z,99.99
2022-11-05T10:40:45.258Z,99.99
2022-11-05T10:41:45.252Z,99.99
2022-11-05T10:42:44.979Z,99.99
2022-11-05T10:43:45.224Z,99.99
2022-11-05T10:44:45.236Z,99.99
2022-11-05T10:45:45.220Z,99.99
2022-11-05T10:46:44.923Z,99.99
2022-11-05T10:47:45.174Z,99.99
2022-11-05T10:48:46.764Z,99.99
2022-11-05T10:49:45.146Z,99.99
2022-11-05T10:50:45.133Z,99.99
2022-11-05T10:51:45.124Z,99.99
2022-11-05T10:52:45.109Z,99.99
2022-11-05T10:53:45.098Z,99.99
2022-11-05T10:54:45.081Z,99.99
2022-11-05T10:55:44.815Z,99.99
2022-11-05T10:56:44.816Z,99.99
2022-11-05T10:57:44.791Z,99.99
2022-11-05T10:58:45.036Z,99.99
2022-11-05T10:59:45.025Z,99.99
2022-11-05T11:00:44.936Z,99.99
2022-11-05T11:01:45.305Z,99.99
2022-11-05T11:02:44.988Z,99.99
2022-11-05T11:03:44.717Z,99.99
2022-11-05T11:04:44.704Z,99.99
2022-11-05T11:05:44.964Z,99.99
2022-11-05T11:06:44.933Z,99.99
2022-11-05T11:07:44.926Z,99.99
2022-11-05T11:08:44.913Z,99.99
2022-11-05T11:09:44.899Z,99.99
2022-11-05T11:10:44.877Z,99.99
2022-11-05T11:11:44.864Z,99.99
2022-11-05T11:12:44.861Z,99.99
2022-11-05T11:13:44.598Z,99.99
2022-11-05T11:14:44.587Z,99.99
2022-11-05T11:15:44.577Z,99.99
2022-11-05T11:16:44.834Z,99.99
2022-11-05T11:17:44.831Z,99.99
2022-11-05T11:18:44.531Z,99.99
2022-11-05T11:19:44.771Z,99.99
2022-11-05T11:20:44.508Z,99.99
2022-11-05T11:21:44.751Z,99.99
2022-11-05T11:22:44.478Z,99.99
2022-11-05T11:23:44.724Z,99.99
2022-11-05T11:24:44.458Z,99.99
2022-11-05T11:25:44.699Z,99.99
2022-11-05T11:26:44.429Z,99.99
2022-11-05T11:27:44.679Z,99.99
2022-11-05T11:28:44.660Z,99.99
2022-11-05T11:29:51.375Z,99.99
2022-11-05T11:30:44.380Z,99.99
2022-11-05T11:31:44.628Z,99.99
2022-11-05T11:32:44.639Z,99.99
2022-11-05T11:33:44.715Z,99.99
2022-11-05T11:34:44.332Z,99.99
2022-11-05T11:35:44.317Z,99.99
2022-11-05T11:36:44.560Z,99.99
2022-11-05T11:37:44.765Z,99.99
2022-11-05T11:38:44.541Z,99.99
2022-11-05T11:39:44.522Z,99.99
2022-11-05T11:40:44.513Z,99.99
2022-11-05T11:41:44.242Z,99.99
2022-11-05T11:42:44.485Z,99.99
2022-11-05T11:43:44.467Z,99.99
2022-11-05T11:44:44.205Z,99.99
2022-11-05T11:45:44.190Z,99.99
2022-11-05T11:46:44.436Z,99.99
2022-11-05T11:47:44.420Z,99.99
2022-11-05T11:48:44.178Z,99.99
2022-11-05T11:49:44.476Z,99.99
2022-11-05T11:50:44.143Z,99.99
2022-11-05T11:51:48.126Z,99.99
2022-11-05T11:52:44.102Z,99.99
2022-11-05T11:53:44.345Z,99.99
2022-11-05T11:54:44.335Z,99.99
2022-11-05T11:55:44.319Z,99.99
2022-11-05T11:56:44.059Z,99.99
2022-11-05T11:57:44.298Z,99.99
2022-11-05T11:58:44.288Z,99.99
2022-11-05T12:00:10.086Z,99.99
2022-11-05T12:00:44.001Z,99.99
2022-11-05T12:01:44.376Z,99.99
2022-11-05T12:02:44.357Z,99.99
2022-11-05T12:03:44.219Z,99.99
2022-11-05T12:04:44.239Z,99.99
2022-11-05T12:05:44.224Z,99.99
2022-11-05T12:06:44.188Z,99.99
2022-11-05T12:07:43.913Z,99.99
2022-11-05T12:08:52.324Z,99.99
2022-11-05T12:09:44.149Z,99.99
2022-11-05T12:10:44.146Z,99.99
2022-11-05T12:11:44.137Z,99.99
2022-11-05T12:12:44.112Z,99.99
2022-11-05T12:13:43.839Z,99.99
2022-11-05T12:14:48.860Z,99.99
2022-11-05T12:15:43.813Z,99.99
2022-11-05T12:16:43.809Z,99.99
2022-11-05T12:17:44.049Z,99.99
2022-11-05T12:18:44.039Z,99.99
2022-11-05T12:19:43.768Z,99.99
2022-11-05T12:20:46.228Z,99.99
2022-11-05T12:21:55.341Z,99.99
2022-11-05T12:22:43.988Z,99.99
2022-11-05T12:23:43.721Z,99.99
2022-11-05T12:24:43.972Z,99.99
2022-11-05T12:25:43.952Z,99.99
2022-11-05T12:26:43.692Z,99.99
2022-11-05T12:27:43.925Z,99.99
2022-11-05T12:29:18.658Z,99.99
2022-11-05T12:29:43.904Z,99.99
2022-11-05T12:30:43.908Z,99.99
2022-11-05T12:31:43.884Z,99.99
2022-11-05T12:32:43.912Z,99.99
2022-11-05T12:33:43.850Z,99.99
2022-11-05T12:34:43.582Z,99.99
2022-11-05T12:35:53.421Z,99.99
2022-11-05T12:36:43.557Z,99.99
2022-11-05T12:37:43.840Z,99.99
2022-11-05T12:38:43.790Z,99.99
2022-11-05T12:39:43.519Z,99.99
2022-11-05T12:40:43.506Z,99.99
2022-11-05T12:41:43.762Z,99.99
2022-11-05T12:42:43.740Z,99.99
2022-11-05T12:43:43.472Z,99.99
2022-11-05T12:44:43.709Z,99.99
2022-11-05T12:45:43.698Z,99.99
2022-11-05T12:46:43.682Z,99.99
2022-11-05T12:47:43.415Z,99.99
2022-11-05T12:48:43.663Z,99.99
2022-11-05T12:49:43.429Z,99.99
2022-11-05T12:50:43.631Z,99.99
2022-11-05T12:51:43.392Z,99.99
2022-11-05T12:52:43.606Z,99.99
2022-11-05T12:53:43.623Z,99.99
2022-11-05T12:54:43.583Z,99.99
2022-11-05T12:55:50.470Z,99.99
2022-11-05T12:56:43.558Z,99.99
2022-11-05T12:57:43.554Z,99.99
2022-11-05T12:58:43.531Z,99.99
2022-11-05T12:59:43.524Z,99.99
2022-11-05T13:00:43.256Z,99.99
2022-11-05T13:01:43.782Z,99.99
2022-11-05T13:02:43.458Z,99.99
2022-11-05T13:03:43.212Z,99.99
2022-11-05T13:04:43.206Z,99.99
2022-11-05T13:05:43.193Z,99.99
2022-11-05T13:06:43.430Z,99.99
2022-11-05T13:07:43.441Z,99.99
2022-11-05T13:08:43.398Z,99.99
2022-11-05T13:09:43.423Z,99.99